sensor_id;sensor_type;location;lat;lon;timestamp;temperature;humidity
79065;DHT22;68469;51.502;7.462;2023-11-19T00:02:08;10.00;99.90
79065;DHT22;68469;51.502;7.462;2023-11-19T00:04:37;10.10;99.90
79065;DHT22;68469;51.502;7.462;2023-11-19T00:07:06;10.10;99.90
79065;DHT22;68469;51.502;7.462;2023-11-19T00:09:33;10.10;99.90
79065;DHT22;68469;51.502;7.462;2023-11-19T00:12:02;10.10;99.90
79065;DHT22;68469;51.502;7.462;2023-11-19T00:14:28;10.10;99.90
79065;DHT22;68469;51.502;7.462;2023-11-19T00:16:55;10.20;99.90
79065;DHT22;68469;51.502;7.462;2023-11-19T00:19:20;10.20;99.90
79065;DHT22;68469;51.502;7.462;2023-11-19T00:21:46;10.20;99.90
79065;DHT22;68469;51.502;7.462;2023-11-19T00:24:12;10.20;99.90
79065;DHT22;68469;51.502;7.462;2023-11-19T00:26:38;10.30;99.90
79065;DHT22;68469;51.502;7.462;2023-11-19T00:29:04;10.30;99.90
79065;DHT22;68469;51.502;7.462;2023-11-19T00:31:30;10.30;99.90
79065;DHT22;68469;51.502;7.462;2023-11-19T00:33:55;10.30;99.90
79065;DHT22;68469;51.502;7.462;2023-11-19T00:36:21;10.40;99.90
79065;DHT22;68469;51.502;7.462;2023-11-19T00:38:49;10.40;99.90
79065;DHT22;68469;51.502;7.462;2023-11-19T00:41:15;10.50;99.90
79065;DHT22;68469;51.502;7.462;2023-11-19T00:43:42;10.50;99.90
79065;DHT22;68469;51.502;7.462;2023-11-19T00:46:07;10.50;99.90
79065;DHT22;68469;51.502;7.462;2023-11-19T00:48:33;10.60;99.90
79065;DHT22;68469;51.502;7.462;2023-11-19T00:50:59;10.60;99.90
79065;DHT22;68469;51.502;7.462;2023-11-19T00:53:25;10.50;99.90
79065;DHT22;68469;51.502;7.462;2023-11-19T00:55:50;10.60;99.90
79065;DHT22;68469;51.502;7.462;2023-11-19T00:58:16;10.60;99.90
79065;DHT22;68469;51.502;7.462;2023-11-19T01:00:43;10.60;99.90
79065;DHT22;68469;51.502;7.462;2023-11-19T01:03:10;10.70;99.90
79065;DHT22;68469;51.502;7.462;2023-11-19T01:05:37;10.70;99.90
79065;DHT22;68469;51.502;7.462;2023-11-19T01:08:02;10.70;99.90
79065;DHT22;68469;51.502;7.462;2023-11-19T01:10:30;10.80;99.90
79065;DHT22;68469;51.502;7.462;2023-11-19T01:12:55;10.80;99.90
79065;DHT22;68469;51.502;7.462;2023-11-19T01:15:21;10.80;99.90
79065;DHT22;68469;51.502;7.462;2023-11-19T01:17:48;10.90;99.90
79065;DHT22;68469;51.502;7.462;2023-11-19T01:20:14;10.90;99.90
79065;DHT22;68469;51.502;7.462;2023-11-19T01:22:40;11.00;99.90
79065;DHT22;68469;51.502;7.462;2023-11-19T01:25:06;11.00;99.90
79065;DHT22;68469;51.502;7.462;2023-11-19T01:27:32;11.00;99.90
79065;DHT22;68469;51.502;7.462;2023-11-19T01:30:01;11.00;99.90
79065;DHT22;68469;51.502;7.462;2023-11-19T01:32:31;11.10;99.90
79065;DHT22;68469;51.502;7.462;2023-11-19T01:34:57;11.10;99.90
79065;DHT22;68469;51.502;7.462;2023-11-19T01:37:22;11.20;99.90
79065;DHT22;68469;51.502;7.462;2023-11-19T01:39:48;11.20;99.90
79065;DHT22;68469;51.502;7.462;2023-11-19T01:42:14;11.20;99.90
79065;DHT22;68469;51.502;7.462;2023-11-19T01:44:41;11.30;99.90
79065;DHT22;68469;51.502;7.462;2023-11-19T01:47:07;11.30;99.90
79065;DHT22;68469;51.502;7.462;2023-11-19T01:49:33;11.30;99.90
79065;DHT22;68469;51.502;7.462;2023-11-19T01:51:59;11.30;99.90
79065;DHT22;68469;51.502;7.462;2023-11-19T01:54:25;11.30;99.90
79065;DHT22;68469;51.502;7.462;2023-11-19T01:56:53;11.30;99.90
79065;DHT22;68469;51.502;7.462;2023-11-19T01:59:22;11.30;99.90
79065;DHT22;68469;51.502;7.462;2023-11-19T02:01:52;11.30;99.90
79065;DHT22;68469;51.502;7.462;2023-11-19T02:04:18;11.40;99.90
79065;DHT22;68469;51.502;7.462;2023-11-19T02:06:45;11.40;99.90
79065;DHT22;68469;51.502;7.462;2023-11-19T02:09:13;11.40;99.90
79065;DHT22;68469;51.502;7.462;2023-11-19T02:11:42;11.40;99.90
79065;DHT22;68469;51.502;7.462;2023-11-19T02:14:08;11.40;99.90
79065;DHT22;68469;51.502;7.462;2023-11-19T02:16:33;11.50;99.90
79065;DHT22;68469;51.502;7.462;2023-11-19T02:18:59;11.50;99.90
79065;DHT22;68469;51.502;7.462;2023-11-19T02:21:25;11.50;99.90
79065;DHT22;68469;51.502;7.462;2023-11-19T02:23:50;11.50;99.90
79065;DHT22;68469;51.502;7.462;2023-11-19T02:26:34;11.40;99.90
79065;DHT22;68469;51.502;7.462;2023-11-19T02:29:02;11.40;99.90
79065;DHT22;68469;51.502;7.462;2023-11-19T02:31:28;11.40;99.90
79065;DHT22;68469;51.502;7.462;2023-11-19T02:33:54;11.40;99.90
79065;DHT22;68469;51.502;7.462;2023-11-19T02:36:20;11.40;99.90
79065;DHT22;68469;51.502;7.462;2023-11-19T02:38:46;11.50;99.90
79065;DHT22;68469;51.502;7.462;2023-11-19T02:41:14;11.50;99.90
79065;DHT22;68469;51.502;7.462;2023-11-19T02:43:40;11.40;99.90
79065;DHT22;68469;51.502;7.462;2023-11-19T02:46:05;11.40;99.90
79065;DHT22;68469;51.502;7.462;2023-11-19T02:48:33;11.50;99.90
79065;DHT22;68469;51.502;7.462;2023-11-19T02:50:58;11.50;99.90
79065;DHT22;68469;51.502;7.462;2023-11-19T02:53:24;11.50;99.90
79065;DHT22;68469;51.502;7.462;2023-11-19T02:55:53;11.50;99.90
79065;DHT22;68469;51.502;7.462;2023-11-19T02:58:18;11.50;99.90
79065;DHT22;68469;51.502;7.462;2023-11-19T03:00:49;11.50;99.90
79065;DHT22;68469;51.502;7.462;2023-11-19T03:03:23;11.40;99.90
79065;DHT22;68469;51.502;7.462;2023-11-19T03:05:54;11.40;99.90
79065;DHT22;68469;51.502;7.462;2023-11-19T03:08:20;11.50;99.90
79065;DHT22;68469;51.502;7.462;2023-11-19T03:10:46;11.50;99.90
79065;DHT22;68469;51.502;7.462;2023-11-19T03:13:13;11.40;99.90
79065;DHT22;68469;51.502;7.462;2023-11-19T03:15:43;11.50;99.90
79065;DHT22;68469;51.502;7.462;2023-11-19T03:18:09;11.50;99.90
79065;DHT22;68469;51.502;7.462;2023-11-19T03:20:34;11.50;99.90
79065;DHT22;68469;51.502;7.462;2023-11-19T03:23:00;11.50;99.90
79065;DHT22;68469;51.502;7.462;2023-11-19T03:25:27;11.50;99.90
79065;DHT22;68469;51.502;7.462;2023-11-19T03:27:58;11.50;99.90
79065;DHT22;68469;51.502;7.462;2023-11-19T03:30:24;11.50;99.90
79065;DHT22;68469;51.502;7.462;2023-11-19T03:32:50;11.50;99.90
79065;DHT22;68469;51.502;7.462;2023-11-19T03:35:16;11.60;99.90
79065;DHT22;68469;51.502;7.462;2023-11-19T03:37:42;11.60;99.90
79065;DHT22;68469;51.502;7.462;2023-11-19T03:40:09;11.60;99.90
79065;DHT22;68469;51.502;7.462;2023-11-19T03:42:35;11.60;99.90
79065;DHT22;68469;51.502;7.462;2023-11-19T03:45:01;11.60;99.90
79065;DHT22;68469;51.502;7.462;2023-11-19T03:47:28;11.70;99.90
79065;DHT22;68469;51.502;7.462;2023-11-19T03:49:54;11.70;99.90
79065;DHT22;68469;51.502;7.462;2023-11-19T03:52:20;11.70;99.90
79065;DHT22;68469;51.502;7.462;2023-11-19T03:54:46;11.70;99.90
79065;DHT22;68469;51.502;7.462;2023-11-19T03:57:12;11.70;99.90
79065;DHT22;68469;51.502;7.462;2023-11-19T03:59:38;11.70;99.90
79065;DHT22;68469;51.502;7.462;2023-11-19T04:02:04;11.60;99.90
79065;DHT22;68469;51.502;7.462;2023-11-19T04:04:29;11.60;99.90
79065;DHT22;68469;51.502;7.462;2023-11-19T04:06:55;11.50;99.90
79065;DHT22;68469;51.502;7.462;2023-11-19T04:09:21;11.50;99.90
79065;DHT22;68469;51.502;7.462;2023-11-19T04:11:47;11.40;99.90
79065;DHT22;68469;51.502;7.462;2023-11-19T04:14:13;11.40;99.90
79065;DHT22;68469;51.502;7.462;2023-11-19T04:16:40;11.30;99.90
79065;DHT22;68469;51.502;7.462;2023-11-19T04:19:06;11.30;99.90
79065;DHT22;68469;51.502;7.462;2023-11-19T04:21:32;11.20;99.90
79065;DHT22;68469;51.502;7.462;2023-11-19T04:23:58;11.10;99.90
79065;DHT22;68469;51.502;7.462;2023-11-19T04:26:24;11.10;99.90
79065;DHT22;68469;51.502;7.462;2023-11-19T04:28:49;11.00;99.90
79065;DHT22;68469;51.502;7.462;2023-11-19T04:31:18;11.00;99.90
79065;DHT22;68469;51.502;7.462;2023-11-19T04:33:43;10.90;99.90
79065;DHT22;68469;51.502;7.462;2023-11-19T04:36:10;10.90;99.90
79065;DHT22;68469;51.502;7.462;2023-11-19T04:38:36;10.90;99.90
79065;DHT22;68469;51.502;7.462;2023-11-19T04:41:04;10.90;99.90
79065;DHT22;68469;51.502;7.462;2023-11-19T04:43:31;10.80;99.90
79065;DHT22;68469;51.502;7.462;2023-11-19T04:45:57;10.80;99.90
79065;DHT22;68469;51.502;7.462;2023-11-19T04:48:23;10.80;99.90
79065;DHT22;68469;51.502;7.462;2023-11-19T04:50:49;10.80;99.90
79065;DHT22;68469;51.502;7.462;2023-11-19T04:53:15;10.80;99.90
79065;DHT22;68469;51.502;7.462;2023-11-19T04:55:41;10.80;99.90
79065;DHT22;68469;51.502;7.462;2023-11-19T04:58:07;10.80;99.90
79065;DHT22;68469;51.502;7.462;2023-11-19T05:00:32;10.80;99.90
79065;DHT22;68469;51.502;7.462;2023-11-19T05:02:58;10.70;99.90
79065;DHT22;68469;51.502;7.462;2023-11-19T05:05:24;10.70;99.90
79065;DHT22;68469;51.502;7.462;2023-11-19T05:07:49;10.70;99.90
79065;DHT22;68469;51.502;7.462;2023-11-19T05:10:15;10.70;99.90
79065;DHT22;68469;51.502;7.462;2023-11-19T05:12:40;10.60;99.90
79065;DHT22;68469;51.502;7.462;2023-11-19T05:15:07;10.60;99.90
79065;DHT22;68469;51.502;7.462;2023-11-19T05:17:33;10.70;99.90
79065;DHT22;68469;51.502;7.462;2023-11-19T05:19:59;10.70;99.90
79065;DHT22;68469;51.502;7.462;2023-11-19T05:22:24;10.70;99.90
79065;DHT22;68469;51.502;7.462;2023-11-19T05:24:51;10.70;99.90
79065;DHT22;68469;51.502;7.462;2023-11-19T05:27:17;10.70;99.90
79065;DHT22;68469;51.502;7.462;2023-11-19T05:29:43;10.80;99.90
79065;DHT22;68469;51.502;7.462;2023-11-19T05:32:09;10.70;99.90
79065;DHT22;68469;51.502;7.462;2023-11-19T05:34:35;10.70;99.90
79065;DHT22;68469;51.502;7.462;2023-11-19T05:37:00;10.70;99.90
79065;DHT22;68469;51.502;7.462;2023-11-19T05:39:28;10.80;99.90
79065;DHT22;68469;51.502;7.462;2023-11-19T05:41:53;10.80;99.90
79065;DHT22;68469;51.502;7.462;2023-11-19T05:44:19;10.80;99.90
79065;DHT22;68469;51.502;7.462;2023-11-19T05:46:45;10.70;99.90
79065;DHT22;68469;51.502;7.462;2023-11-19T05:49:11;10.80;99.90
79065;DHT22;68469;51.502;7.462;2023-11-19T05:51:40;10.70;99.90
79065;DHT22;68469;51.502;7.462;2023-11-19T05:54:07;10.80;99.90
79065;DHT22;68469;51.502;7.462;2023-11-19T05:56:33;10.70;99.90
79065;DHT22;68469;51.502;7.462;2023-11-19T05:58:59;10.80;99.90
79065;DHT22;68469;51.502;7.462;2023-11-19T06:01:40;10.80;99.90
79065;DHT22;68469;51.502;7.462;2023-11-19T06:04:07;10.80;99.90
79065;DHT22;68469;51.502;7.462;2023-11-19T06:06:32;10.80;99.90
79065;DHT22;68469;51.502;7.462;2023-11-19T06:08:58;10.90;99.90
79065;DHT22;68469;51.502;7.462;2023-11-19T06:11:24;10.90;99.90
79065;DHT22;68469;51.502;7.462;2023-11-19T06:13:52;10.90;99.90
79065;DHT22;68469;51.502;7.462;2023-11-19T06:16:18;10.90;99.90
79065;DHT22;68469;51.502;7.462;2023-11-19T06:18:44;10.90;99.90
79065;DHT22;68469;51.502;7.462;2023-11-19T06:21:10;10.90;99.90
79065;DHT22;68469;51.502;7.462;2023-11-19T06:23:36;10.90;99.90
79065;DHT22;68469;51.502;7.462;2023-11-19T06:26:01;10.90;99.90
79065;DHT22;68469;51.502;7.462;2023-11-19T06:28:27;10.80;99.90
79065;DHT22;68469;51.502;7.462;2023-11-19T06:30:53;10.80;99.90
79065;DHT22;68469;51.502;7.462;2023-11-19T06:33:18;10.70;99.90
79065;DHT22;68469;51.502;7.462;2023-11-19T06:35:44;10.70;99.90
79065;DHT22;68469;51.502;7.462;2023-11-19T06:38:10;10.60;99.90
79065;DHT22;68469;51.502;7.462;2023-11-19T06:40:35;10.60;99.90
79065;DHT22;68469;51.502;7.462;2023-11-19T06:43:01;10.60;99.90
79065;DHT22;68469;51.502;7.462;2023-11-19T06:45:30;10.60;99.90
79065;DHT22;68469;51.502;7.462;2023-11-19T06:47:56;10.50;99.90
79065;DHT22;68469;51.502;7.462;2023-11-19T06:50:21;10.50;99.90
79065;DHT22;68469;51.502;7.462;2023-11-19T06:52:47;10.50;99.90
79065;DHT22;68469;51.502;7.462;2023-11-19T06:55:13;10.50;99.90
79065;DHT22;68469;51.502;7.462;2023-11-19T06:57:38;10.50;99.90
79065;DHT22;68469;51.502;7.462;2023-11-19T07:00:05;10.50;99.90
79065;DHT22;68469;51.502;7.462;2023-11-19T07:02:31;10.50;99.90
79065;DHT22;68469;51.502;7.462;2023-11-19T07:04:57;10.50;99.90
79065;DHT22;68469;51.502;7.462;2023-11-19T07:07:23;10.50;99.90
79065;DHT22;68469;51.502;7.462;2023-11-19T07:09:48;10.50;99.90
79065;DHT22;68469;51.502;7.462;2023-11-19T07:12:14;10.50;99.90
79065;DHT22;68469;51.502;7.462;2023-11-19T07:14:40;10.50;99.90
79065;DHT22;68469;51.502;7.462;2023-11-19T07:17:07;10.60;99.90
79065;DHT22;68469;51.502;7.462;2023-11-19T07:19:34;10.60;99.90
79065;DHT22;68469;51.502;7.462;2023-11-19T07:22:01;10.60;99.90
79065;DHT22;68469;51.502;7.462;2023-11-19T07:24:27;10.70;99.90
79065;DHT22;68469;51.502;7.462;2023-11-19T07:26:53;10.70;99.90
79065;DHT22;68469;51.502;7.462;2023-11-19T07:29:19;10.70;99.90
79065;DHT22;68469;51.502;7.462;2023-11-19T07:31:48;10.70;99.90
79065;DHT22;68469;51.502;7.462;2023-11-19T07:34:14;10.80;99.90
79065;DHT22;68469;51.502;7.462;2023-11-19T07:36:39;10.80;99.90
79065;DHT22;68469;51.502;7.462;2023-11-19T07:39:05;10.80;99.90
79065;DHT22;68469;51.502;7.462;2023-11-19T07:41:31;10.90;99.90
79065;DHT22;68469;51.502;7.462;2023-11-19T07:43:57;10.90;99.90
79065;DHT22;68469;51.502;7.462;2023-11-19T07:46:22;11.00;99.90
79065;DHT22;68469;51.502;7.462;2023-11-19T07:48:48;11.00;99.90
79065;DHT22;68469;51.502;7.462;2023-11-19T07:51:14;11.10;99.90
79065;DHT22;68469;51.502;7.462;2023-11-19T07:53:40;11.20;99.90
79065;DHT22;68469;51.502;7.462;2023-11-19T07:56:07;11.30;99.90
79065;DHT22;68469;51.502;7.462;2023-11-19T07:58:33;11.40;99.90
79065;DHT22;68469;51.502;7.462;2023-11-19T08:00:58;11.40;99.90
79065;DHT22;68469;51.502;7.462;2023-11-19T08:03:24;11.50;99.90
79065;DHT22;68469;51.502;7.462;2023-11-19T08:05:50;11.60;99.90
79065;DHT22;68469;51.502;7.462;2023-11-19T08:08:16;11.60;99.90
79065;DHT22;68469;51.502;7.462;2023-11-19T08:10:42;11.60;99.90
79065;DHT22;68469;51.502;7.462;2023-11-19T08:13:08;11.70;99.90
79065;DHT22;68469;51.502;7.462;2023-11-19T08:15:34;11.80;99.90
79065;DHT22;68469;51.502;7.462;2023-11-19T08:18:00;11.80;99.90
79065;DHT22;68469;51.502;7.462;2023-11-19T08:20:25;11.90;99.90
79065;DHT22;68469;51.502;7.462;2023-11-19T08:22:51;11.90;99.90
79065;DHT22;68469;51.502;7.462;2023-11-19T08:25:16;11.90;99.90
79065;DHT22;68469;51.502;7.462;2023-11-19T08:27:42;12.00;99.90
79065;DHT22;68469;51.502;7.462;2023-11-19T08:30:08;12.00;99.90
79065;DHT22;68469;51.502;7.462;2023-11-19T08:32:34;12.10;99.90
79065;DHT22;68469;51.502;7.462;2023-11-19T08:35:00;12.20;99.90
79065;DHT22;68469;51.502;7.462;2023-11-19T08:37:26;12.20;99.90
79065;DHT22;68469;51.502;7.462;2023-11-19T08:39:52;12.20;99.90
79065;DHT22;68469;51.502;7.462;2023-11-19T08:42:18;12.20;99.90
79065;DHT22;68469;51.502;7.462;2023-11-19T08:44:43;12.20;99.90
79065;DHT22;68469;51.502;7.462;2023-11-19T08:47:15;12.20;99.90
79065;DHT22;68469;51.502;7.462;2023-11-19T08:49:43;12.20;99.90
79065;DHT22;68469;51.502;7.462;2023-11-19T08:52:09;12.30;99.90
79065;DHT22;68469;51.502;7.462;2023-11-19T08:54:36;12.30;99.90
79065;DHT22;68469;51.502;7.462;2023-11-19T08:57:01;12.30;99.90
79065;DHT22;68469;51.502;7.462;2023-11-19T08:59:28;12.40;99.90
79065;DHT22;68469;51.502;7.462;2023-11-19T09:01:54;12.50;99.90
79065;DHT22;68469;51.502;7.462;2023-11-19T09:04:20;12.70;99.90
79065;DHT22;68469;51.502;7.462;2023-11-19T09:06:48;12.80;99.90
79065;DHT22;68469;51.502;7.462;2023-11-19T09:09:14;12.80;99.90
79065;DHT22;68469;51.502;7.462;2023-11-19T09:11:39;12.90;99.90
79065;DHT22;68469;51.502;7.462;2023-11-19T09:14:05;12.90;99.90
79065;DHT22;68469;51.502;7.462;2023-11-19T09:16:31;12.80;99.90
79065;DHT22;68469;51.502;7.462;2023-11-19T09:18:57;12.70;99.90
79065;DHT22;68469;51.502;7.462;2023-11-19T09:21:25;12.70;99.90
79065;DHT22;68469;51.502;7.462;2023-11-19T09:23:50;12.70;99.90
79065;DHT22;68469;51.502;7.462;2023-11-19T09:26:16;12.60;99.90
79065;DHT22;68469;51.502;7.462;2023-11-19T09:28:42;12.50;99.90
79065;DHT22;68469;51.502;7.462;2023-11-19T09:31:14;12.50;99.90
79065;DHT22;68469;51.502;7.462;2023-11-19T09:33:40;12.40;99.90
79065;DHT22;68469;51.502;7.462;2023-11-19T09:36:06;12.50;99.90
79065;DHT22;68469;51.502;7.462;2023-11-19T09:38:32;12.50;99.90
79065;DHT22;68469;51.502;7.462;2023-11-19T09:40:58;12.50;99.90
79065;DHT22;68469;51.502;7.462;2023-11-19T09:43:26;12.60;99.90
79065;DHT22;68469;51.502;7.462;2023-11-19T09:45:54;12.60;99.90
79065;DHT22;68469;51.502;7.462;2023-11-19T09:48:20;12.60;99.90
79065;DHT22;68469;51.502;7.462;2023-11-19T09:50:47;12.80;99.90
79065;DHT22;68469;51.502;7.462;2023-11-19T09:53:14;13.10;99.90
79065;DHT22;68469;51.502;7.462;2023-11-19T09:55:39;13.20;99.90
79065;DHT22;68469;51.502;7.462;2023-11-19T09:58:06;13.30;99.90
79065;DHT22;68469;51.502;7.462;2023-11-19T10:00:32;13.30;99.90
79065;DHT22;68469;51.502;7.462;2023-11-19T10:02:59;13.40;99.90
79065;DHT22;68469;51.502;7.462;2023-11-19T10:05:25;13.70;99.90
79065;DHT22;68469;51.502;7.462;2023-11-19T10:07:52;13.80;99.90
79065;DHT22;68469;51.502;7.462;2023-11-19T10:10:18;13.80;99.90
79065;DHT22;68469;51.502;7.462;2023-11-19T10:12:46;13.80;99.90
79065;DHT22;68469;51.502;7.462;2023-11-19T10:15:20;14.30;99.90
79065;DHT22;68469;51.502;7.462;2023-11-19T10:17:46;15.10;99.90
79065;DHT22;68469;51.502;7.462;2023-11-19T10:20:12;15.90;99.90
79065;DHT22;68469;51.502;7.462;2023-11-19T10:22:37;16.40;98.90
79065;DHT22;68469;51.502;7.462;2023-11-19T10:25:04;16.70;99.90
79065;DHT22;68469;51.502;7.462;2023-11-19T10:27:30;16.60;94.40
79065;DHT22;68469;51.502;7.462;2023-11-19T10:29:59;16.30;98.40
79065;DHT22;68469;51.502;7.462;2023-11-19T10:32:25;16.10;98.50
79065;DHT22;68469;51.502;7.462;2023-11-19T10:34:50;15.80;99.90
79065;DHT22;68469;51.502;7.462;2023-11-19T10:37:27;15.50;99.90
79065;DHT22;68469;51.502;7.462;2023-11-19T10:39:55;15.10;96.90
79065;DHT22;68469;51.502;7.462;2023-11-19T10:42:21;15.00;99.90
79065;DHT22;68469;51.502;7.462;2023-11-19T10:44:46;14.90;98.30
79065;DHT22;68469;51.502;7.462;2023-11-19T10:47:13;14.80;99.90
79065;DHT22;68469;51.502;7.462;2023-11-19T10:49:39;14.60;99.90
79065;DHT22;68469;51.502;7.462;2023-11-19T10:52:08;14.40;99.90
79065;DHT22;68469;51.502;7.462;2023-11-19T10:54:34;14.80;99.90
79065;DHT22;68469;51.502;7.462;2023-11-19T10:57:01;15.00;99.90
79065;DHT22;68469;51.502;7.462;2023-11-19T10:59:30;15.00;99.90
79065;DHT22;68469;51.502;7.462;2023-11-19T11:01:57;14.90;99.90
79065;DHT22;68469;51.502;7.462;2023-11-19T11:04:26;14.70;99.90
79065;DHT22;68469;51.502;7.462;2023-11-19T11:06:58;14.60;99.90
79065;DHT22;68469;51.502;7.462;2023-11-19T11:09:30;14.40;99.90
79065;DHT22;68469;51.502;7.462;2023-11-19T11:11:55;14.20;99.90
79065;DHT22;68469;51.502;7.462;2023-11-19T11:14:24;14.30;99.90
79065;DHT22;68469;51.502;7.462;2023-11-19T11:16:51;14.60;99.90
79065;DHT22;68469;51.502;7.462;2023-11-19T11:19:18;14.70;99.90
79065;DHT22;68469;51.502;7.462;2023-11-19T11:21:48;14.60;99.00
79065;DHT22;68469;51.502;7.462;2023-11-19T11:24:34;14.60;99.90
79065;DHT22;68469;51.502;7.462;2023-11-19T11:32:56;14.00;99.90
79065;DHT22;68469;51.502;7.462;2023-11-19T11:35:42;13.80;99.90
79065;DHT22;68469;51.502;7.462;2023-11-19T11:38:11;13.70;99.90
79065;DHT22;68469;51.502;7.462;2023-11-19T11:40:39;13.60;99.90
79065;DHT22;68469;51.502;7.462;2023-11-19T11:43:47;13.60;99.90
79065;DHT22;68469;51.502;7.462;2023-11-19T11:49:08;13.40;99.90
79065;DHT22;68469;51.502;7.462;2023-11-19T11:57:13;13.30;99.90
79065;DHT22;68469;51.502;7.462;2023-11-19T12:02:08;13.60;99.90
79065;DHT22;68469;51.502;7.462;2023-11-19T12:04:35;13.80;99.90
79065;DHT22;68469;51.502;7.462;2023-11-19T12:07:12;14.10;99.90
79065;DHT22;68469;51.502;7.462;2023-11-19T12:09:41;14.30;99.90
79065;DHT22;68469;51.502;7.462;2023-11-19T12:15:08;14.50;99.60
79065;DHT22;68469;51.502;7.462;2023-11-19T12:17:47;14.50;99.90
79065;DHT22;68469;51.502;7.462;2023-11-19T12:20:17;14.30;99.40
79065;DHT22;68469;51.502;7.462;2023-11-19T12:22:45;14.20;99.90
79065;DHT22;68469;51.502;7.462;2023-11-19T12:25:12;14.10;99.90
79065;DHT22;68469;51.502;7.462;2023-11-19T12:27:45;14.00;99.90
79065;DHT22;68469;51.502;7.462;2023-11-19T12:30:11;13.90;99.90
79065;DHT22;68469;51.502;7.462;2023-11-19T12:32:38;13.90;99.90
79065;DHT22;68469;51.502;7.462;2023-11-19T12:35:05;13.90;99.90
79065;DHT22;68469;51.502;7.462;2023-11-19T12:37:30;13.90;99.00
79065;DHT22;68469;51.502;7.462;2023-11-19T12:39:57;13.80;99.90
79065;DHT22;68469;51.502;7.462;2023-11-19T12:42:39;13.70;99.90
79065;DHT22;68469;51.502;7.462;2023-11-19T12:45:05;13.70;99.90
79065;DHT22;68469;51.502;7.462;2023-11-19T12:47:31;13.60;99.00
79065;DHT22;68469;51.502;7.462;2023-11-19T12:49:59;13.60;99.90
79065;DHT22;68469;51.502;7.462;2023-11-19T12:52:25;13.40;99.90
79065;DHT22;68469;51.502;7.462;2023-11-19T12:54:50;13.40;99.90
79065;DHT22;68469;51.502;7.462;2023-11-19T12:57:16;13.50;99.90
79065;DHT22;68469;51.502;7.462;2023-11-19T12:59:54;13.50;99.90
79065;DHT22;68469;51.502;7.462;2023-11-19T13:02:21;13.40;99.90
79065;DHT22;68469;51.502;7.462;2023-11-19T13:04:47;13.40;99.90
79065;DHT22;68469;51.502;7.462;2023-11-19T13:07:12;13.30;99.90
79065;DHT22;68469;51.502;7.462;2023-11-19T13:09:38;13.30;99.90
79065;DHT22;68469;51.502;7.462;2023-11-19T13:12:14;13.20;99.90
79065;DHT22;68469;51.502;7.462;2023-11-19T13:14:40;13.20;99.90
79065;DHT22;68469;51.502;7.462;2023-11-19T13:17:07;13.10;99.90
79065;DHT22;68469;51.502;7.462;2023-11-19T13:19:33;13.00;99.90
79065;DHT22;68469;51.502;7.462;2023-11-19T13:21:59;12.70;99.90
79065;DHT22;68469;51.502;7.462;2023-11-19T13:24:25;12.40;99.90
79065;DHT22;68469;51.502;7.462;2023-11-19T13:26:50;12.20;99.90
79065;DHT22;68469;51.502;7.462;2023-11-19T13:29:16;12.00;99.90
79065;DHT22;68469;51.502;7.462;2023-11-19T13:31:41;11.80;99.90
79065;DHT22;68469;51.502;7.462;2023-11-19T13:34:08;11.80;99.90
79065;DHT22;68469;51.502;7.462;2023-11-19T13:36:33;11.70;99.90
79065;DHT22;68469;51.502;7.462;2023-11-19T13:38:59;11.60;99.90
79065;DHT22;68469;51.502;7.462;2023-11-19T13:41:28;11.60;99.90
79065;DHT22;68469;51.502;7.462;2023-11-19T13:43:54;11.50;99.90
79065;DHT22;68469;51.502;7.462;2023-11-19T13:46:20;11.50;99.90
79065;DHT22;68469;51.502;7.462;2023-11-19T13:48:46;11.50;99.90
79065;DHT22;68469;51.502;7.462;2023-11-19T13:51:12;11.60;99.90
79065;DHT22;68469;51.502;7.462;2023-11-19T13:53:37;11.70;99.90
79065;DHT22;68469;51.502;7.462;2023-11-19T13:56:03;11.70;99.90
79065;DHT22;68469;51.502;7.462;2023-11-19T13:58:29;11.70;99.90
79065;DHT22;68469;51.502;7.462;2023-11-19T14:00:54;11.70;99.90
79065;DHT22;68469;51.502;7.462;2023-11-19T14:03:20;11.70;99.90
79065;DHT22;68469;51.502;7.462;2023-11-19T14:05:45;11.70;99.90
79065;DHT22;68469;51.502;7.462;2023-11-19T14:08:11;11.70;99.90
79065;DHT22;68469;51.502;7.462;2023-11-19T14:10:38;11.70;99.90
79065;DHT22;68469;51.502;7.462;2023-11-19T14:13:06;11.80;99.90
79065;DHT22;68469;51.502;7.462;2023-11-19T14:15:32;11.80;99.90
79065;DHT22;68469;51.502;7.462;2023-11-19T14:17:57;11.80;99.90
79065;DHT22;68469;51.502;7.462;2023-11-19T14:20:23;11.80;99.90
79065;DHT22;68469;51.502;7.462;2023-11-19T14:22:48;11.80;99.90
79065;DHT22;68469;51.502;7.462;2023-11-19T14:25:15;11.80;99.90
79065;DHT22;68469;51.502;7.462;2023-11-19T14:27:42;11.80;99.90
79065;DHT22;68469;51.502;7.462;2023-11-19T14:30:09;11.70;99.90
79065;DHT22;68469;51.502;7.462;2023-11-19T14:32:44;11.70;99.90
79065;DHT22;68469;51.502;7.462;2023-11-19T14:35:11;11.70;99.90
79065;DHT22;68469;51.502;7.462;2023-11-19T14:37:37;11.60;99.90
79065;DHT22;68469;51.502;7.462;2023-11-19T14:40:03;11.60;99.90
79065;DHT22;68469;51.502;7.462;2023-11-19T14:42:31;11.60;99.90
79065;DHT22;68469;51.502;7.462;2023-11-19T14:44:57;11.60;99.90
79065;DHT22;68469;51.502;7.462;2023-11-19T14:47:22;11.50;99.90
79065;DHT22;68469;51.502;7.462;2023-11-19T14:49:48;11.50;99.90
79065;DHT22;68469;51.502;7.462;2023-11-19T14:52:14;11.50;99.90
79065;DHT22;68469;51.502;7.462;2023-11-19T14:54:39;11.50;99.90
79065;DHT22;68469;51.502;7.462;2023-11-19T14:57:06;11.50;99.90
79065;DHT22;68469;51.502;7.462;2023-11-19T14:59:35;11.40;99.90
79065;DHT22;68469;51.502;7.462;2023-11-19T15:02:01;11.50;99.90
79065;DHT22;68469;51.502;7.462;2023-11-19T15:04:28;11.40;99.90
79065;DHT22;68469;51.502;7.462;2023-11-19T15:06:56;11.40;99.90
79065;DHT22;68469;51.502;7.462;2023-11-19T15:09:22;11.40;99.90
79065;DHT22;68469;51.502;7.462;2023-11-19T15:11:47;11.30;99.90
79065;DHT22;68469;51.502;7.462;2023-11-19T15:14:14;11.20;99.90
79065;DHT22;68469;51.502;7.462;2023-11-19T15:16:42;11.20;99.90
79065;DHT22;68469;51.502;7.462;2023-11-19T15:19:08;11.10;99.90
79065;DHT22;68469;51.502;7.462;2023-11-19T15:21:34;11.00;99.90
79065;DHT22;68469;51.502;7.462;2023-11-19T15:24:00;11.00;99.90
79065;DHT22;68469;51.502;7.462;2023-11-19T15:26:27;11.10;99.90
79065;DHT22;68469;51.502;7.462;2023-11-19T15:28:53;11.00;99.90
79065;DHT22;68469;51.502;7.462;2023-11-19T15:31:22;11.00;99.90
79065;DHT22;68469;51.502;7.462;2023-11-19T15:33:48;10.90;99.90
79065;DHT22;68469;51.502;7.462;2023-11-19T15:36:14;10.90;99.90
79065;DHT22;68469;51.502;7.462;2023-11-19T15:38:40;10.90;99.90
79065;DHT22;68469;51.502;7.462;2023-11-19T15:41:09;10.80;99.90
79065;DHT22;68469;51.502;7.462;2023-11-19T15:43:35;10.90;99.90
79065;DHT22;68469;51.502;7.462;2023-11-19T15:46:00;10.90;99.90
79065;DHT22;68469;51.502;7.462;2023-11-19T15:48:26;10.90;99.90